sensor_id;sensor_type;location;lat;lon;timestamp;P1;durP1;ratioP1;P2;durP2;ratioP2
74375;SDS011;62812;55.188;61.302;2023-06-22T00:02:07;8.30;;;3.88;;
74375;SDS011;62812;55.188;61.302;2023-06-22T00:04:36;11.73;;;4.18;;
74375;SDS011;62812;55.188;61.302;2023-06-22T00:07:03;8.05;;;3.95;;
74375;SDS011;62812;55.188;61.302;2023-06-22T00:09:31;12.02;;;4.30;;
74375;SDS011;62812;55.188;61.302;2023-06-22T00:11:58;7.60;;;3.63;;
74375;SDS011;62812;55.188;61.302;2023-06-22T00:14:26;10.52;;;4.20;;
74375;SDS011;62812;55.188;61.302;2023-06-22T00:16:53;10.45;;;4.28;;
74375;SDS011;62812;55.188;61.302;2023-06-22T00:19:21;9.80;;;4.30;;
74375;SDS011;62812;55.188;61.302;2023-06-22T00:21:50;9.50;;;4.53;;
74375;SDS011;62812;55.188;61.302;2023-06-22T00:24:20;10.05;;;4.22;;
74375;SDS011;62812;55.188;61.302;2023-06-22T00:26:47;9.65;;;4.60;;
74375;SDS011;62812;55.188;61.302;2023-06-22T00:29:15;10.00;;;4.28;;
74375;SDS011;62812;55.188;61.302;2023-06-22T00:31:41;9.43;;;4.32;;
74375;SDS011;62812;55.188;61.302;2023-06-22T00:34:09;10.43;;;4.63;;
74375;SDS011;62812;55.188;61.302;2023-06-22T00:36:36;10.68;;;5.18;;
74375;SDS011;62812;55.188;61.302;2023-06-22T00:39:04;8.38;;;4.28;;
74375;SDS011;62812;55.188;61.302;2023-06-22T00:41:33;8.07;;;4.05;;
74375;SDS011;62812;55.188;61.302;2023-06-22T00:44:03;9.27;;;4.32;;
74375;SDS011;62812;55.188;61.302;2023-06-22T00:46:30;9.10;;;4.35;;
74375;SDS011;62812;55.188;61.302;2023-06-22T00:48:57;8.90;;;4.10;;
74375;SDS011;62812;55.188;61.302;2023-06-22T00:51:26;8.00;;;4.00;;
74375;SDS011;62812;55.188;61.302;2023-06-22T00:53:53;9.45;;;4.07;;
74375;SDS011;62812;55.188;61.302;2023-06-22T00:56:22;8.98;;;4.32;;
74375;SDS011;62812;55.188;61.302;2023-06-22T00:58:50;8.80;;;4.10;;
74375;SDS011;62812;55.188;61.302;2023-06-22T01:01:19;9.32;;;4.40;;
74375;SDS011;62812;55.188;61.302;2023-06-22T01:03:49;8.43;;;4.10;;
74375;SDS011;62812;55.188;61.302;2023-06-22T01:06:18;11.75;;;4.32;;
74375;SDS011;62812;55.188;61.302;2023-06-22T01:08:55;9.13;;;4.13;;
74375;SDS011;62812;55.188;61.302;2023-06-22T01:11:31;8.15;;;3.63;;
74375;SDS011;62812;55.188;61.302;2023-06-22T01:14:04;8.15;;;3.90;;
74375;SDS011;62812;55.188;61.302;2023-06-22T01:16:34;9.02;;;4.13;;
74375;SDS011;62812;55.188;61.302;2023-06-22T01:19:08;10.30;;;4.25;;
74375;SDS011;62812;55.188;61.302;2023-06-22T01:21:46;9.02;;;3.83;;
74375;SDS011;62812;55.188;61.302;2023-06-22T01:24:18;12.35;;;4.50;;
74375;SDS011;62812;55.188;61.302;2023-06-22T01:26:54;10.18;;;4.57;;
74375;SDS011;62812;55.188;61.302;2023-06-22T01:29:28;10.95;;;4.40;;
74375;SDS011;62812;55.188;61.302;2023-06-22T01:31:56;9.35;;;3.95;;
74375;SDS011;62812;55.188;61.302;2023-06-22T01:34:25;8.20;;;3.70;;
74375;SDS011;62812;55.188;61.302;2023-06-22T01:36:53;9.27;;;4.18;;
74375;SDS011;62812;55.188;61.302;2023-06-22T01:39:21;11.55;;;4.10;;
74375;SDS011;62812;55.188;61.302;2023-06-22T01:41:48;7.63;;;3.58;;
74375;SDS011;62812;55.188;61.302;2023-06-22T01:44:18;12.57;;;3.90;;
74375;SDS011;62812;55.188;61.302;2023-06-22T01:46:47;9.90;;;4.38;;
74375;SDS011;62812;55.188;61.302;2023-06-22T01:49:16;8.63;;;4.18;;
74375;SDS011;62812;55.188;61.302;2023-06-22T01:51:43;7.55;;;3.60;;
74375;SDS011;62812;55.188;61.302;2023-06-22T01:54:11;10.85;;;3.92;;
74375;SDS011;62812;55.188;61.302;2023-06-22T01:56:38;9.20;;;4.43;;
74375;SDS011;62812;55.188;61.302;2023-06-22T01:59:07;11.00;;;4.22;;
74375;SDS011;62812;55.188;61.302;2023-06-22T02:01:40;8.65;;;3.88;;
74375;SDS011;62812;55.188;61.302;2023-06-22T02:04:13;9.75;;;4.07;;
74375;SDS011;62812;55.188;61.302;2023-06-22T02:06:49;8.60;;;4.35;;
74375;SDS011;62812;55.188;61.302;2023-06-22T02:09:20;11.23;;;4.13;;
74375;SDS011;62812;55.188;61.302;2023-06-22T02:14:21;9.82;;;3.75;;
74375;SDS011;62812;55.188;61.302;2023-06-22T02:16:49;8.13;;;3.75;;
74375;SDS011;62812;55.188;61.302;2023-06-22T02:19:18;8.57;;;3.60;;
74375;SDS011;62812;55.188;61.302;2023-06-22T02:21:49;8.50;;;3.97;;
74375;SDS011;62812;55.188;61.302;2023-06-22T02:24:16;10.85;;;3.97;;
74375;SDS011;62812;55.188;61.302;2023-06-22T02:26:43;7.82;;;3.83;;
74375;SDS011;62812;55.188;61.302;2023-06-22T02:29:12;10.98;;;3.90;;
74375;SDS011;62812;55.188;61.302;2023-06-22T02:31:39;10.00;;;3.92;;
74375;SDS011;62812;55.188;61.302;2023-06-22T02:34:07;8.63;;;4.07;;
74375;SDS011;62812;55.188;61.302;2023-06-22T02:36:47;8.98;;;4.45;;
74375;SDS011;62812;55.188;61.302;2023-06-22T02:39:19;8.82;;;4.03;;
74375;SDS011;62812;55.188;61.302;2023-06-22T02:41:48;8.23;;;3.55;;
74375;SDS011;62812;55.188;61.302;2023-06-22T02:44:18;9.05;;;3.90;;
74375;SDS011;62812;55.188;61.302;2023-06-22T02:46:57;9.50;;;4.10;;
74375;SDS011;62812;55.188;61.302;2023-06-22T02:49:24;6.80;;;3.58;;
74375;SDS011;62812;55.188;61.302;2023-06-22T02:51:54;8.43;;;3.90;;
74375;SDS011;62812;55.188;61.302;2023-06-22T02:54:22;9.05;;;3.38;;
74375;SDS011;62812;55.188;61.302;2023-06-22T02:56:52;8.20;;;3.55;;
74375;SDS011;62812;55.188;61.302;2023-06-22T02:59:20;7.10;;;3.63;;
74375;SDS011;62812;55.188;61.302;2023-06-22T03:01:50;7.45;;;3.70;;
74375;SDS011;62812;55.188;61.302;2023-06-22T03:04:17;8.55;;;3.63;;
74375;SDS011;62812;55.188;61.302;2023-06-22T03:06:44;8.38;;;4.25;;
74375;SDS011;62812;55.188;61.302;2023-06-22T03:09:21;7.55;;;3.40;;
74375;SDS011;62812;55.188;61.302;2023-06-22T03:11:49;8.82;;;3.55;;
74375;SDS011;62812;55.188;61.302;2023-06-22T03:14:19;6.72;;;3.38;;
74375;SDS011;62812;55.188;61.302;2023-06-22T03:16:47;7.32;;;3.92;;
74375;SDS011;62812;55.188;61.302;2023-06-22T03:19:14;8.10;;;3.40;;
74375;SDS011;62812;55.188;61.302;2023-06-22T03:21:42;7.60;;;3.58;;
74375;SDS011;62812;55.188;61.302;2023-06-22T03:24:09;9.68;;;3.50;;
74375;SDS011;62812;55.188;61.302;2023-06-22T03:26:38;9.43;;;3.40;;
74375;SDS011;62812;55.188;61.302;2023-06-22T03:29:07;7.18;;;3.22;;
74375;SDS011;62812;55.188;61.302;2023-06-22T03:31:40;6.80;;;3.10;;
74375;SDS011;62812;55.188;61.302;2023-06-22T03:34:11;6.95;;;3.50;;
74375;SDS011;62812;55.188;61.302;2023-06-22T03:37:04;6.50;;;3.15;;
74375;SDS011;62812;55.188;61.302;2023-06-22T03:39:31;8.13;;;3.53;;
74375;SDS011;62812;55.188;61.302;2023-06-22T03:42:02;6.68;;;3.33;;
74375;SDS011;62812;55.188;61.302;2023-06-22T03:44:37;7.95;;;3.58;;
74375;SDS011;62812;55.188;61.302;2023-06-22T03:47:13;11.70;;;3.42;;
74375;SDS011;62812;55.188;61.302;2023-06-22T03:49:48;7.15;;;3.40;;
74375;SDS011;62812;55.188;61.302;2023-06-22T03:52:15;8.30;;;3.45;;
74375;SDS011;62812;55.188;61.302;2023-06-22T03:54:46;6.85;;;3.42;;
74375;SDS011;62812;55.188;61.302;2023-06-22T03:57:17;10.05;;;3.13;;
74375;SDS011;62812;55.188;61.302;2023-06-22T03:59:47;6.30;;;3.10;;
74375;SDS011;62812;55.188;61.302;2023-06-22T04:02:23;6.88;;;2.90;;
74375;SDS011;62812;55.188;61.302;2023-06-22T04:04:57;7.75;;;3.65;;
74375;SDS011;62812;55.188;61.302;2023-06-22T04:07:28;8.55;;;3.63;;
74375;SDS011;62812;55.188;61.302;2023-06-22T04:09:55;7.43;;;3.38;;
74375;SDS011;62812;55.188;61.302;2023-06-22T04:12:27;11.63;;;5.00;;
74375;SDS011;62812;55.188;61.302;2023-06-22T04:14:54;10.88;;;4.38;;
74375;SDS011;62812;55.188;61.302;2023-06-22T04:17:21;7.72;;;4.03;;
74375;SDS011;62812;55.188;61.302;2023-06-22T04:19:51;9.27;;;3.97;;
74375;SDS011;62812;55.188;61.302;2023-06-22T04:22:21;7.22;;;3.63;;
74375;SDS011;62812;55.188;61.302;2023-06-22T04:24:54;9.45;;;4.07;;
74375;SDS011;62812;55.188;61.302;2023-06-22T04:27:21;8.95;;;3.67;;
74375;SDS011;62812;55.188;61.302;2023-06-22T04:30:09;9.88;;;3.97;;
74375;SDS011;62812;55.188;61.302;2023-06-22T04:32:37;7.47;;;4.22;;
74375;SDS011;62812;55.188;61.302;2023-06-22T04:35:07;8.15;;;4.28;;
74375;SDS011;62812;55.188;61.302;2023-06-22T04:37:43;8.05;;;3.55;;
74375;SDS011;62812;55.188;61.302;2023-06-22T04:40:18;9.13;;;3.97;;
74375;SDS011;62812;55.188;61.302;2023-06-22T04:47:47;8.40;;;3.40;;
74375;SDS011;62812;55.188;61.302;2023-06-22T04:50:15;7.65;;;3.05;;
74375;SDS011;62812;55.188;61.302;2023-06-22T04:52:51;6.32;;;3.10;;
74375;SDS011;62812;55.188;61.302;2023-06-22T04:55:21;7.55;;;3.72;;
74375;SDS011;62812;55.188;61.302;2023-06-22T04:57:56;5.95;;;3.13;;
74375;SDS011;62812;55.188;61.302;2023-06-22T05:00:53;5.97;;;2.88;;
74375;SDS011;62812;55.188;61.302;2023-06-22T05:06:03;5.68;;;2.85;;
74375;SDS011;62812;55.188;61.302;2023-06-22T05:08:33;6.30;;;2.38;;
74375;SDS011;62812;55.188;61.302;2023-06-22T05:11:08;5.50;;;2.15;;
74375;SDS011;62812;55.188;61.302;2023-06-22T05:16:12;4.07;;;1.92;;
74375;SDS011;62812;55.188;61.302;2023-06-22T05:18:52;5.63;;;1.63;;
74375;SDS011;62812;55.188;61.302;2023-06-22T05:21:23;4.63;;;2.10;;
74375;SDS011;62812;55.188;61.302;2023-06-22T05:23:52;6.60;;;2.20;;
74375;SDS011;62812;55.188;61.302;2023-06-22T05:26:22;5.03;;;1.83;;
74375;SDS011;62812;55.188;61.302;2023-06-22T05:28:50;4.65;;;1.85;;
74375;SDS011;62812;55.188;61.302;2023-06-22T05:31:18;5.55;;;2.50;;
74375;SDS011;62812;55.188;61.302;2023-06-22T05:33:51;5.45;;;2.47;;
74375;SDS011;62812;55.188;61.302;2023-06-22T05:36:20;6.72;;;2.90;;
74375;SDS011;62812;55.188;61.302;2023-06-22T05:38:52;5.53;;;2.67;;
74375;SDS011;62812;55.188;61.302;2023-06-22T05:41:19;5.78;;;2.40;;
74375;SDS011;62812;55.188;61.302;2023-06-22T05:44:00;5.25;;;2.60;;
74375;SDS011;62812;55.188;61.302;2023-06-22T05:46:42;5.07;;;2.30;;
74375;SDS011;62812;55.188;61.302;2023-06-22T05:49:18;5.63;;;2.65;;
74375;SDS011;62812;55.188;61.302;2023-06-22T05:51:45;6.63;;;2.45;;
74375;SDS011;62812;55.188;61.302;2023-06-22T05:54:12;4.82;;;2.40;;
74375;SDS011;62812;55.188;61.302;2023-06-22T05:56:41;5.15;;;2.13;;
74375;SDS011;62812;55.188;61.302;2023-06-22T05:59:13;4.80;;;2.17;;
74375;SDS011;62812;55.188;61.302;2023-06-22T06:01:41;6.28;;;2.03;;
74375;SDS011;62812;55.188;61.302;2023-06-22T06:04:08;5.53;;;2.22;;
74375;SDS011;62812;55.188;61.302;2023-06-22T06:06:38;4.88;;;2.25;;
74375;SDS011;62812;55.188;61.302;2023-06-22T06:09:05;4.90;;;2.25;;
74375;SDS011;62812;55.188;61.302;2023-06-22T06:11:56;6.55;;;2.47;;
74375;SDS011;62812;55.188;61.302;2023-06-22T06:14:26;4.70;;;2.13;;
74375;SDS011;62812;55.188;61.302;2023-06-22T06:16:53;5.75;;;2.03;;
74375;SDS011;62812;55.188;61.302;2023-06-22T06:19:20;6.22;;;2.22;;
74375;SDS011;62812;55.188;61.302;2023-06-22T06:21:59;4.45;;;2.10;;
74375;SDS011;62812;55.188;61.302;2023-06-22T06:26:58;6.43;;;2.40;;
74375;SDS011;62812;55.188;61.302;2023-06-22T06:29:28;4.45;;;2.10;;
74375;SDS011;62812;55.188;61.302;2023-06-22T06:31:57;4.90;;;1.98;;
74375;SDS011;62812;55.188;61.302;2023-06-22T06:35:03;5.18;;;1.90;;
74375;SDS011;62812;55.188;61.302;2023-06-22T06:38:03;5.43;;;1.98;;
74375;SDS011;62812;55.188;61.302;2023-06-22T06:40:33;5.80;;;1.98;;
74375;SDS011;62812;55.188;61.302;2023-06-22T06:51:22;3.97;;;1.85;;
74375;SDS011;62812;55.188;61.302;2023-06-22T06:53:52;7.38;;;1.90;;
74375;SDS011;62812;55.188;61.302;2023-06-22T06:56:22;5.07;;;2.22;;
74375;SDS011;62812;55.188;61.302;2023-06-22T07:09:05;7.88;;;2.33;;
74375;SDS011;62812;55.188;61.302;2023-06-22T07:11:35;4.90;;;2.28;;
74375;SDS011;62812;55.188;61.302;2023-06-22T07:14:12;5.57;;;2.30;;
74375;SDS011;62812;55.188;61.302;2023-06-22T07:16:42;5.80;;;2.15;;
74375;SDS011;62812;55.188;61.302;2023-06-22T07:19:24;5.32;;;2.47;;
74375;SDS011;62812;55.188;61.302;2023-06-22T07:21:52;4.53;;;2.13;;
74375;SDS011;62812;55.188;61.302;2023-06-22T07:24:25;5.28;;;2.00;;
74375;SDS011;62812;55.188;61.302;2023-06-22T07:27:07;4.72;;;2.17;;
74375;SDS011;62812;55.188;61.302;2023-06-22T07:30:12;3.88;;;1.80;;
74375;SDS011;62812;55.188;61.302;2023-06-22T07:49:08;4.30;;;2.28;;
74375;SDS011;62812;55.188;61.302;2023-06-22T07:51:41;4.75;;;2.15;;
74375;SDS011;62812;55.188;61.302;2023-06-22T07:59:27;5.30;;;2.55;;
74375;SDS011;62812;55.188;61.302;2023-06-22T08:01:51;4.57;;;2.45;;
74375;SDS011;62812;55.188;61.302;2023-06-22T08:04:41;4.28;;;2.25;;
74375;SDS011;62812;55.188;61.302;2023-06-22T08:07:31;5.82;;;2.60;;
74375;SDS011;62812;55.188;61.302;2023-06-22T08:12:07;5.88;;;2.60;;
74375;SDS011;62812;55.188;61.302;2023-06-22T08:30:29;8.15;;;3.00;;
74375;SDS011;62812;55.188;61.302;2023-06-22T08:33:05;5.68;;;2.83;;
74375;SDS011;62812;55.188;61.302;2023-06-22T08:35:35;7.43;;;2.88;;
74375;SDS011;62812;55.188;61.302;2023-06-22T08:38:14;4.93;;;2.60;;
74375;SDS011;62812;55.188;61.302;2023-06-22T08:41:00;5.60;;;3.00;;
74375;SDS011;62812;55.188;61.302;2023-06-22T08:44:11;5.70;;;2.78;;
74375;SDS011;62812;55.188;61.302;2023-06-22T08:50:25;5.72;;;2.70;;
74375;SDS011;62812;55.188;61.302;2023-06-22T08:53:19;6.00;;;2.80;;
74375;SDS011;62812;55.188;61.302;2023-06-22T08:55:47;5.13;;;2.72;;
74375;SDS011;62812;55.188;61.302;2023-06-22T08:58:18;7.75;;;2.53;;
74375;SDS011;62812;55.188;61.302;2023-06-22T09:00:46;5.40;;;3.25;;
74375;SDS011;62812;55.188;61.302;2023-06-22T09:03:21;5.38;;;3.03;;
74375;SDS011;62812;55.188;61.302;2023-06-22T09:05:58;5.68;;;2.90;;
74375;SDS011;62812;55.188;61.302;2023-06-22T09:10:56;5.97;;;3.08;;
74375;SDS011;62812;55.188;61.302;2023-06-22T09:13:30;6.30;;;2.72;;
74375;SDS011;62812;55.188;61.302;2023-06-22T09:15:58;4.65;;;2.50;;
74375;SDS011;62812;55.188;61.302;2023-06-22T09:18:49;6.88;;;2.75;;
74375;SDS011;62812;55.188;61.302;2023-06-22T09:25:39;6.07;;;3.17;;
74375;SDS011;62812;55.188;61.302;2023-06-22T09:31:48;7.63;;;2.78;;
74375;SDS011;62812;55.188;61.302;2023-06-22T09:34:30;5.55;;;2.90;;
74375;SDS011;62812;55.188;61.302;2023-06-22T09:37:01;5.97;;;2.85;;
74375;SDS011;62812;55.188;61.302;2023-06-22T09:39:28;6.07;;;2.90;;
74375;SDS011;62812;55.188;61.302;2023-06-22T09:41:55;12.77;;;5.38;;
74375;SDS011;62812;55.188;61.302;2023-06-22T09:44:25;5.80;;;2.63;;
74375;SDS011;62812;55.188;61.302;2023-06-22T09:47:17;7.82;;;3.15;;
74375;SDS011;62812;55.188;61.302;2023-06-22T09:50:07;6.70;;;3.17;;
74375;SDS011;62812;55.188;61.302;2023-06-22T09:52:40;4.72;;;2.63;;
74375;SDS011;62812;55.188;61.302;2023-06-22T09:55:12;4.90;;;2.60;;
74375;SDS011;62812;55.188;61.302;2023-06-22T09:57:43;5.20;;;2.58;;
74375;SDS011;62812;55.188;61.302;2023-06-22T10:00:11;5.07;;;2.72;;
74375;SDS011;62812;55.188;61.302;2023-06-22T10:05:11;6.28;;;2.65;;
74375;SDS011;62812;55.188;61.302;2023-06-22T10:07:40;6.25;;;3.30;;
74375;SDS011;62812;55.188;61.302;2023-06-22T10:10:10;5.05;;;2.92;;
74375;SDS011;62812;55.188;61.302;2023-06-22T10:12:43;5.07;;;2.50;;
74375;SDS011;62812;55.188;61.302;2023-06-22T10:15:38;6.65;;;2.83;;
74375;SDS011;62812;55.188;61.302;2023-06-22T10:18:06;6.13;;;2.70;;
74375;SDS011;62812;55.188;61.302;2023-06-22T10:20:37;5.18;;;3.00;;
74375;SDS011;62812;55.188;61.302;2023-06-22T10:23:07;6.88;;;2.80;;
74375;SDS011;62812;55.188;61.302;2023-06-22T10:25:33;5.32;;;2.80;;
74375;SDS011;62812;55.188;61.302;2023-06-22T10:28:03;6.03;;;2.90;;
74375;SDS011;62812;55.188;61.302;2023-06-22T10:33:16;5.15;;;2.63;;
74375;SDS011;62812;55.188;61.302;2023-06-22T10:35:45;7.25;;;2.97;;
74375;SDS011;62812;55.188;61.302;2023-06-22T10:38:26;5.05;;;2.50;;
74375;SDS011;62812;55.188;61.302;2023-06-22T10:40:56;8.27;;;2.60;;
74375;SDS011;62812;55.188;61.302;2023-06-22T10:43:28;4.32;;;2.22;;
74375;SDS011;62812;55.188;61.302;2023-06-22T10:45:54;5.53;;;2.60;;
74375;SDS011;62812;55.188;61.302;2023-06-22T10:48:21;5.97;;;2.42;;
74375;SDS011;62812;55.188;61.302;2023-06-22T10:50:48;5.03;;;2.40;;
74375;SDS011;62812;55.188;61.302;2023-06-22T10:53:18;8.30;;;2.63;;
74375;SDS011;62812;55.188;61.302;2023-06-22T10:55:45;4.85;;;2.30;;
74375;SDS011;62812;55.188;61.302;2023-06-22T10:58:14;4.82;;;2.42;;
74375;SDS011;62812;55.188;61.302;2023-06-22T11:00:42;4.47;;;2.63;;
74375;SDS011;62812;55.188;61.302;2023-06-22T11:03:11;5.35;;;2.60;;
74375;SDS011;62812;55.188;61.302;2023-06-22T11:05:41;5.90;;;2.63;;
74375;SDS011;62812;55.188;61.302;2023-06-22T11:08:08;5.53;;;2.83;;
74375;SDS011;62812;55.188;61.302;2023-06-22T11:10:36;5.65;;;2.80;;
74375;SDS011;62812;55.188;61.302;2023-06-22T11:13:04;5.47;;;2.60;;
74375;SDS011;62812;55.188;61.302;2023-06-22T11:15:31;6.20;;;2.92;;
74375;SDS011;62812;55.188;61.302;2023-06-22T11:17:58;4.68;;;2.40;;
74375;SDS011;62812;55.188;61.302;2023-06-22T11:20:25;9.93;;;2.83;;
74375;SDS011;62812;55.188;61.302;2023-06-22T11:22:57;5.90;;;2.85;;
74375;SDS011;62812;55.188;61.302;2023-06-22T11:25:25;5.95;;;2.63;;
74375;SDS011;62812;55.188;61.302;2023-06-22T11:27:58;7.05;;;2.90;;
74375;SDS011;62812;55.188;61.302;2023-06-22T11:30:25;7.38;;;2.58;;
74375;SDS011;62812;55.188;61.302;2023-06-22T11:32:57;4.78;;;2.53;;
74375;SDS011;62812;55.188;61.302;2023-06-22T11:35:24;6.30;;;2.85;;
74375;SDS011;62812;55.188;61.302;2023-06-22T11:37:54;5.15;;;2.50;;
74375;SDS011;62812;55.188;61.302;2023-06-22T11:40:26;5.47;;;2.88;;
74375;SDS011;62812;55.188;61.302;2023-06-22T11:42:53;10.38;;;3.85;;
74375;SDS011;62812;55.188;61.302;2023-06-22T11:45:50;4.28;;;2.30;;
74375;SDS011;62812;55.188;61.302;2023-06-22T11:48:18;6.28;;;2.50;;
74375;SDS011;62812;55.188;61.302;2023-06-22T11:50:45;5.00;;;2.70;;
74375;SDS011;62812;55.188;61.302;2023-06-22T11:53:12;7.38;;;2.78;;
74375;SDS011;62812;55.188;61.302;2023-06-22T11:55:43;8.75;;;3.15;;
74375;SDS011;62812;55.188;61.302;2023-06-22T11:58:14;6.32;;;2.90;;
74375;SDS011;62812;55.188;61.302;2023-06-22T12:00:41;5.95;;;2.97;;
74375;SDS011;62812;55.188;61.302;2023-06-22T12:03:09;7.65;;;3.15;;
74375;SDS011;62812;55.188;61.302;2023-06-22T12:05:39;10.05;;;3.00;;
74375;SDS011;62812;55.188;61.302;2023-06-22T12:08:07;6.72;;;2.88;;
74375;SDS011;62812;55.188;61.302;2023-06-22T12:10:34;7.50;;;2.90;;
74375;SDS011;62812;55.188;61.302;2023-06-22T12:13:03;10.13;;;3.00;;
74375;SDS011;62812;55.188;61.302;2023-06-22T12:15:32;7.28;;;3.10;;
74375;SDS011;62812;55.188;61.302;2023-06-22T12:18:07;6.28;;;2.85;;
74375;SDS011;62812;55.188;61.302;2023-06-22T12:20:41;7.05;;;2.92;;
74375;SDS011;62812;55.188;61.302;2023-06-22T12:23:08;5.63;;;2.67;;
74375;SDS011;62812;55.188;61.302;2023-06-22T12:25:36;5.70;;;2.65;;
74375;SDS011;62812;55.188;61.302;2023-06-22T12:28:03;7.93;;;2.67;;
74375;SDS011;62812;55.188;61.302;2023-06-22T12:30:34;6.28;;;2.50;;
74375;SDS011;62812;55.188;61.302;2023-06-22T12:33:09;6.07;;;2.72;;
74375;SDS011;62812;55.188;61.302;2023-06-22T12:35:43;6.25;;;2.58;;
74375;SDS011;62812;55.188;61.302;2023-06-22T12:38:19;5.20;;;2.65;;
74375;SDS011;62812;55.188;61.302;2023-06-22T12:40:47;6.50;;;2.83;;
74375;SDS011;62812;55.188;61.302;2023-06-22T12:43:28;7.97;;;2.75;;
74375;SDS011;62812;55.188;61.302;2023-06-22T12:45:58;4.55;;;2.53;;
74375;SDS011;62812;55.188;61.302;2023-06-22T12:48:26;5.97;;;2.88;;
74375;SDS011;62812;55.188;61.302;2023-06-22T12:50:55;5.65;;;2.50;;
74375;SDS011;62812;55.188;61.302;2023-06-22T12:53:26;5.05;;;2.47;;
74375;SDS011;62812;55.188;61.302;2023-06-22T12:56:11;4.80;;;2.45;;
74375;SDS011;62812;55.188;61.302;2023-06-22T12:58:45;5.82;;;2.80;;
74375;SDS011;62812;55.188;61.302;2023-06-22T13:01:19;6.25;;;2.80;;
74375;SDS011;62812;55.188;61.302;2023-06-22T13:04:03;5.57;;;2.70;;
74375;SDS011;62812;55.188;61.302;2023-06-22T13:06:34;8.18;;;2.90;;
74375;SDS011;62812;55.188;61.302;2023-06-22T13:09:06;8.23;;;3.08;;
74375;SDS011;62812;55.188;61.302;2023-06-22T13:11:46;6.25;;;3.08;;
74375;SDS011;62812;55.188;61.302;2023-06-22T13:14:17;7.63;;;3.53;;
74375;SDS011;62812;55.188;61.302;2023-06-22T13:16:45;7.95;;;3.55;;
74375;SDS011;62812;55.188;61.302;2023-06-22T13:19:24;6.65;;;3.63;;
74375;SDS011;62812;55.188;61.302;2023-06-22T13:22:28;7.03;;;3.22;;
74375;SDS011;62812;55.188;61.302;2023-06-22T13:24:58;7.65;;;3.30;;
74375;SDS011;62812;55.188;61.302;2023-06-22T13:27:38;12.43;;;3.63;;
74375;SDS011;62812;55.188;61.302;2023-06-22T13:30:15;6.68;;;3.53;;
74375;SDS011;62812;55.188;61.302;2023-06-22T13:32:44;5.95;;;3.00;;
74375;SDS011;62812;55.188;61.302;2023-06-22T13:35:14;5.47;;;3.10;;
74375;SDS011;62812;55.188;61.302;2023-06-22T13:37:41;11.93;;;3.40;;
74375;SDS011;62812;55.188;61.302;2023-06-22T13:40:08;6.40;;;3.33;;
74375;SDS011;62812;55.188;61.302;2023-06-22T13:42:37;6.35;;;3.15;;
74375;SDS011;62812;55.188;61.302;2023-06-22T13:45:05;6.93;;;3.25;;
74375;SDS011;62812;55.188;61.302;2023-06-22T13:47:33;6.15;;;3.05;;
74375;SDS011;62812;55.188;61.302;2023-06-22T13:50:04;5.72;;;3.13;;
74375;SDS011;62812;55.188;61.302;2023-06-22T13:52:32;6.10;;;3.42;;
74375;SDS011;62812;55.188;61.302;2023-06-22T13:54:59;7.47;;;3.42;;
74375;SDS011;62812;55.188;61.302;2023-06-22T13:57:27;7.53;;;3.55;;
74375;SDS011;62812;55.188;61.302;2023-06-22T13:59:54;6.15;;;3.65;;
74375;SDS011;62812;55.188;61.302;2023-06-22T14:02:23;6.45;;;3.65;;
74375;SDS011;62812;55.188;61.302;2023-06-22T14:04:50;7.85;;;3.95;;
74375;SDS011;62812;55.188;61.302;2023-06-22T14:07:22;7.32;;;3.83;;
74375;SDS011;62812;55.188;61.302;2023-06-22T14:09:51;6.60;;;3.40;;
74375;SDS011;62812;55.188;61.302;2023-06-22T14:12:18;6.03;;;3.30;;
74375;SDS011;62812;55.188;61.302;2023-06-22T14:14:46;8.30;;;3.42;;
74375;SDS011;62812;55.188;61.302;2023-06-22T14:17:15;5.50;;;3.20;;
74375;SDS011;62812;55.188;61.302;2023-06-22T14:20:06;5.32;;;3.10;;
74375;SDS011;62812;55.188;61.302;2023-06-22T14:22:43;5.50;;;3.45;;
74375;SDS011;62812;55.188;61.302;2023-06-22T14:25:15;6.03;;;3.17;;
74375;SDS011;62812;55.188;61.302;2023-06-22T14:27:44;8.00;;;3.35;;
74375;SDS011;62812;55.188;61.302;2023-06-22T14:30:12;5.22;;;3.08;;
74375;SDS011;62812;55.188;61.302;2023-06-22T14:32:43;6.22;;;3.42;;
74375;SDS011;62812;55.188;61.302;2023-06-22T14:35:12;5.80;;;3.58;;
74375;SDS011;62812;55.188;61.302;2023-06-22T14:37:40;5.65;;;3.38;;
74375;SDS011;62812;55.188;61.302;2023-06-22T14:40:11;7.22;;;3.90;;
74375;SDS011;62812;55.188;61.302;2023-06-22T14:42:39;6.65;;;3.50;;
74375;SDS011;62812;55.188;61.302;2023-06-22T14:45:09;9.80;;;3.65;;
74375;SDS011;62812;55.188;61.302;2023-06-22T14:47:40;6.40;;;3.78;;
74375;SDS011;62812;55.188;61.302;2023-06-22T14:50:07;7.28;;;3.33;;
74375;SDS011;62812;55.188;61.302;2023-06-22T14:52:51;7.30;;;3.58;;
74375;SDS011;62812;55.188;61.302;2023-06-22T14:55:20;7.70;;;4.00;;
74375;SDS011;62812;55.188;61.302;2023-06-22T14:57:48;6.30;;;3.42;;
74375;SDS011;62812;55.188;61.302;2023-06-22T15:00:18;6.82;;;3.42;;
74375;SDS011;62812;55.188;61.302;2023-06-22T15:02:49;5.57;;;3.45;;
74375;SDS011;62812;55.188;61.302;2023-06-22T15:05:18;6.93;;;3.58;;
74375;SDS011;62812;55.188;61.302;2023-06-22T15:07:47;10.07;;;3.40;;
74375;SDS011;62812;55.188;61.302;2023-06-22T15:10:17;10.57;;;3.58;;
74375;SDS011;62812;55.188;61.302;2023-06-22T15:12:44;6.50;;;3.13;;
74375;SDS011;62812;55.188;61.302;2023-06-22T15:15:14;6.65;;;3.22;;
74375;SDS011;62812;55.188;61.302;2023-06-22T15:17:44;6.75;;;3.65;;
74375;SDS011;62812;55.188;61.302;2023-06-22T15:20:16;7.05;;;4.00;;
74375;SDS011;62812;55.188;61.302;2023-06-22T15:23:07;7.47;;;3.50;;
74375;SDS011;62812;55.188;61.302;2023-06-22T15:25:42;5.65;;;3.13;;
74375;SDS011;62812;55.188;61.302;2023-06-22T15:28:11;7.03;;;3.60;;
74375;SDS011;62812;55.188;61.302;2023-06-22T15:30:42;5.80;;;3.65;;
74375;SDS011;62812;55.188;61.302;2023-06-22T15:33:10;7.60;;;3.50;;
74375;SDS011;62812;55.188;61.302;2023-06-22T15:35:45;6.95;;;3.90;;
74375;SDS011;62812;55.188;61.302;2023-06-22T15:38:16;7.07;;;4.05;;
74375;SDS011;62812;55.188;61.302;2023-06-22T15:43:43;7.20;;;3.55;;
74375;SDS011;62812;55.188;61.302;2023-06-22T15:46:14;8.10;;;4.10;;
74375;SDS011;62812;55.188;61.302;2023-06-22T15:48:44;5.47;;;3.50;;
74375;SDS011;62812;55.188;61.302;2023-06-22T15:51:12;7.22;;;3.83;;
74375;SDS011;62812;55.188;61.302;2023-06-22T15:53:44;5.97;;;3.60;;
74375;SDS011;62812;55.188;61.302;2023-06-22T15:56:13;6.65;;;3.75;;
74375;SDS011;62812;55.188;61.302;2023-06-22T16:01:31;8.63;;;3.88;;
74375;SDS011;62812;55.188;61.302;2023-06-22T16:04:09;6.90;;;3.88;;
74375;SDS011;62812;55.188;61.302;2023-06-22T16:06:56;8.60;;;3.92;;
74375;SDS011;62812;55.188;61.302;2023-06-22T16:09:56;7.20;;;3.90;;
74375;SDS011;62812;55.188;61.302;2023-06-22T16:12:28;8.18;;;4.60;;
74375;SDS011;62812;55.188;61.302;2023-06-22T16:15:04;8.32;;;4.00;;
74375;SDS011;62812;55.188;61.302;2023-06-22T16:17:42;7.63;;;4.45;;
74375;SDS011;62812;55.188;61.302;2023-06-22T16:20:11;9.75;;;4.80;;
74375;SDS011;62812;55.188;61.302;2023-06-22T16:22:45;11.00;;;4.57;;
74375;SDS011;62812;55.188;61.302;2023-06-22T16:25:20;9.10;;;4.53;;
74375;SDS011;62812;55.188;61.302;2023-06-22T16:28:06;8.55;;;4.13;;
74375;SDS011;62812;55.188;61.302;2023-06-22T16:30:36;9.40;;;4.70;;
74375;SDS011;62812;55.188;61.302;2023-06-22T16:33:05;7.13;;;4.47;;
74375;SDS011;62812;55.188;61.302;2023-06-22T16:35:40;7.68;;;4.30;;
74375;SDS011;62812;55.188;61.302;2023-06-22T16:38:08;8.73;;;4.40;;
74375;SDS011;62812;55.188;61.302;2023-06-22T16:40:37;7.40;;;4.30;;